Time;durP1;ratioP1;P1;durP2;ratioP2;P2;SDS_P1;SDS_P2;PMS_P1;PMS_P2;Temp;Humidity;BMP_temperature;BMP_pressure;BME280_temperature;BME280_humidity;BME280_pressure;Samples;Min_cycle;Max_cycle;Signal;HPM_P1;HPM_P2
2023/05/26 00:00:54;;;;;;;0.20;0.20;;;;;;;14.58;96.50;99541.84;5041490;28;20430;-73
2023/05/26 00:03:22;;;;;;;0.20;0.20;;;;;;;14.60;96.21;99539.63;5040425;28;20392;-74
2023/05/26 00:05:48;;;;;;;;;;;;;;;14.61;96.20;99538.50;5041414;28;20048;-74
2023/05/26 00:08:14;;;;;;;0.20;0.20;;;;;;;14.57;96.17;99531.97;5041049;28;19931;-69
2023/05/26 00:10:40;;;;;;;0.20;0.20;;;;;;;14.56;96.26;99535.84;5041665;28;20049;-69
2023/05/26 00:13:07;;;;;;;0.30;0.30;;;;;;;14.54;96.10;99538.09;5022275;28;20468;-70
2023/05/26 00:15:33;;;;;;;0.20;0.20;;;;;;;14.53;96.18;99542.81;5021869;28;20057;-70
2023/05/26 00:18:01;;;;;;;0.30;0.30;;;;;;;14.56;96.21;99536.69;5020675;28;20415;-70
2023/05/26 00:20:29;;;;;;;0.20;0.20;;;;;;;14.56;96.45;99550.44;5042444;28;20070;-71
2023/05/26 00:22:55;;;;;;;0.20;0.20;;;;;;;14.57;96.26;99546.56;5011473;28;20144;-70
2023/05/26 00:25:22;;;;;;;0.28;0.28;;;;;;;14.53;96.33;99539.22;5042241;28;20052;-70
2023/05/26 00:27:49;;;;;;;0.20;0.20;;;;;;;14.51;96.50;99547.78;5041107;28;20059;-70
2023/05/26 00:30:15;;;;;;;0.30;0.30;;;;;;;14.53;96.58;99551.06;5040182;28;20068;-70
2023/05/26 00:32:44;;;;;;;0.20;0.20;;;;;;;14.52;96.73;99548.59;5025552;28;20114;-69
2023/05/26 00:35:10;;;;;;;0.20;0.20;;;;;;;14.49;96.52;99544.53;5042993;28;20040;-70
2023/05/26 00:37:37;;;;;;;0.30;0.30;;;;;;;14.43;96.78;99538.31;5042350;28;20041;-70
2023/05/26 00:40:05;;;;;;;0.22;0.22;;;;;;;14.43;97.20;99545.75;5008497;28;20049;-69
2023/05/26 00:42:31;;;;;;;;;;;;;;;14.40;97.54;99549.94;5026584;28;20041;-69
2023/05/26 00:44:57;;;;;;;0.22;0.22;;;;;;;14.39;97.30;99553.81;5009372;28;19935;-69
2023/05/26 00:47:23;;;;;;;0.22;0.22;;;;;;;14.42;97.51;99549.63;5024583;28;20053;-69
2023/05/26 00:49:50;;;;;;;0.20;0.20;;;;;;;14.37;97.36;99538.75;5036486;28;20057;-69
2023/05/26 00:52:17;;;;;;;0.63;0.20;;;;;;;14.43;97.63;99543.81;5024870;28;20535;-70
2023/05/26 00:54:45;;;;;;;0.20;0.20;;;;;;;14.46;97.54;99550.63;5042057;28;20810;-74
2023/05/26 00:57:11;;;;;;;0.20;0.20;;;;;;;14.44;97.73;99555.63;5006332;28;20072;-73
2023/05/26 00:59:38;;;;;;;0.20;0.20;;;;;;;14.41;97.97;99542.50;5039753;28;20115;-74
2023/05/26 01:02:04;;;;;;;0.20;0.20;;;;;;;14.41;98.26;99548.00;5036581;28;20041;-73
2023/05/26 01:04:31;;;;;;;0.20;0.20;;;;;;;14.41;98.10;99543.31;5007774;28;20045;-74
2023/05/26 01:06:57;;;;;;;0.20;0.20;;;;;;;14.39;98.39;99553.00;5043381;28;20443;-73
2023/05/26 01:09:24;;;;;;;0.20;0.20;;;;;;;14.35;98.77;99550.03;5039507;28;20495;-72
2023/05/26 01:12:01;;;;;;;0.20;0.20;;;;;;;14.35;98.57;99546.47;5023307;28;20409;-74
2023/05/26 01:14:31;;;;;;;0.20;0.20;;;;;;;14.30;99.06;99550.94;4994449;28;20303;-74
2023/05/26 01:17:02;;;;;;;0.20;0.20;;;;;;;14.30;98.91;99553.69;5026572;28;20179;-69
2023/05/26 01:20:01;;;;;;;0.30;0.30;;;;;;;14.34;98.96;99545.66;5027947;28;20049;-70
2023/05/26 01:22:43;;;;;;;0.20;0.20;;;;;;;14.34;99.03;99540.16;5017944;28;20059;-74
2023/05/26 01:25:22;;;;;;;0.20;0.20;;;;;;;14.39;98.60;99539.25;5043115;28;20045;-74
2023/05/26 01:28:03;;;;;;;0.55;0.30;;;;;;;14.40;98.66;99544.44;5027670;28;20521;-75
2023/05/26 01:30:31;;;;;;;0.30;0.30;;;;;;;14.40;98.54;99541.69;5047239;28;20760;-74
2023/05/26 01:32:58;;;;;;;0.30;0.30;;;;;;;14.35;98.68;99541.78;5018115;28;20055;-76
2023/05/26 01:35:25;;;;;;;0.30;0.30;;;;;;;14.38;98.57;99535.66;5008479;28;20538;-75
2023/05/26 01:37:52;;;;;;;0.30;0.30;;;;;;;14.41;98.48;99545.25;5024782;28;20045;-75
2023/05/26 01:40:19;;;;;;;0.20;0.20;;;;;;;14.41;98.28;99543.31;5013215;28;20079;-74
2023/05/26 01:42:53;;;;;;;0.28;0.28;;;;;;;14.42;98.25;99550.44;5045948;28;20044;-70
2023/05/26 01:45:24;;;;;;;0.30;0.30;;;;;;;14.41;98.51;99540.56;5038127;28;20041;-70
2023/05/26 01:47:55;;;;;;;0.30;0.30;;;;;;;14.55;98.15;99553.47;5009128;28;20049;-70
2023/05/26 01:50:25;;;;;;;0.30;0.30;;;;;;;14.59;97.86;99543.47;5042970;28;20057;-70
2023/05/26 01:52:55;;;;;;;0.20;0.20;;;;;;;14.66;97.16;99554.91;5026838;28;20401;-70
2023/05/26 01:55:24;;;;;;;0.30;0.30;;;;;;;14.70;96.87;99549.59;5022499;28;20041;-69
2023/05/26 01:57:51;;;;;;;0.30;0.30;;;;;;;14.76;96.42;99550.34;5008148;28;20080;-69
2023/05/26 02:00:25;;;;;;;0.30;0.30;;;;;;;14.77;95.97;99554.72;5043198;28;20052;-69
2023/05/26 02:02:51;;;;;;;0.30;0.30;;;;;;;14.79;94.94;99556.03;5045035;28;20473;-69
2023/05/26 02:05:18;;;;;;;0.30;0.30;;;;;;;14.78;94.79;99556.34;5026341;28;20045;-75
2023/05/26 02:07:46;;;;;;;0.30;0.30;;;;;;;14.74;94.55;99553.38;5043607;28;20061;-74
2023/05/26 02:10:12;;;;;;;0.30;0.30;;;;;;;14.76;94.08;99555.84;5043040;28;20516;-74
2023/05/26 02:12:39;;;;;;;0.20;0.20;;;;;;;14.77;93.60;99555.50;5024616;28;20119;-75
2023/05/26 02:15:08;;;;;;;0.20;0.20;;;;;;;14.78;93.38;99556.34;5008446;28;20487;-74
2023/05/26 02:17:36;;;;;;;0.30;0.30;;;;;;;14.77;93.21;99562.97;5026210;28;20092;-74
2023/05/26 02:20:02;;;;;;;0.30;0.30;;;;;;;14.71;93.10;99557.56;5006770;28;20056;-74
2023/05/26 02:22:30;;;;;;;0.30;0.30;;;;;;;14.75;93.11;99560.53;5022948;28;20103;-70
2023/05/26 02:24:57;;;;;;;0.30;0.30;;;;;;;14.79;93.56;99560.72;5010705;28;20631;-70
2023/05/26 02:27:23;;;;;;;0.30;0.30;;;;;;;14.83;93.54;99565.31;5037823;28;20507;-70
2023/05/26 02:29:49;;;;;;;0.20;0.20;;;;;;;14.92;93.10;99559.06;5040997;28;20443;-70
2023/05/26 02:32:15;;;;;;;0.30;0.30;;;;;;;14.97;92.49;99558.94;5024447;28;20251;-70
2023/05/26 02:34:43;;;;;;;0.30;0.30;;;;;;;15.02;92.21;99567.88;5043868;28;20470;-70
2023/05/26 02:37:10;;;;;;;0.22;0.22;;;;;;;15.10;91.71;99565.53;5032952;28;20585;-70
2023/05/26 02:39:36;;;;;;;0.30;0.30;;;;;;;15.12;91.44;99563.28;5024519;28;20076;-74
2023/05/26 02:42:02;;;;;;;0.30;0.30;;;;;;;14.91;91.13;99539.00;5043719;28;20524;-74
2023/05/26 02:44:29;;;;;;;;;;;;;;;15.12;90.66;99577.03;5024905;28;20194;-74
2023/05/26 02:46:55;;;;;;;0.30;0.30;;;;;;;15.14;90.56;99583.88;5008144;28;19925;-75
2023/05/26 02:49:23;;;;;;;0.30;0.30;;;;;;;15.16;90.23;99584.38;5027972;28;20508;-73
2023/05/26 02:51:51;;;;;;;0.30;0.30;;;;;;;15.17;90.04;99579.66;5044423;28;20148;-74
2023/05/26 02:54:17;;;;;;;0.30;0.30;;;;;;;15.22;90.25;99581.50;5007625;28;20049;-74
2023/05/26 02:56:43;;;;;;;0.30;0.30;;;;;;;15.26;89.67;99574.22;5043204;28;20095;-75
2023/05/26 02:59:11;;;;;;;0.30;0.30;;;;;;;15.28;89.28;99572.81;5020705;28;20047;-75
2023/05/26 03:01:37;;;;;;;0.30;0.30;;;;;;;15.31;88.18;99579.66;5021500;28;20528;-74
2023/05/26 03:04:04;;;;;;;0.30;0.30;;;;;;;15.37;88.01;99580.31;5020934;28;20060;-74
2023/05/26 03:06:32;;;;;;;0.30;0.30;;;;;;;15.42;87.21;99578.25;5042918;28;20424;-75
2023/05/26 03:08:59;;;;;;;0.30;0.30;;;;;;;15.48;86.70;99564.38;5041736;28;21216;-75
2023/05/26 03:11:26;;;;;;;0.40;0.40;;;;;;;15.52;86.37;99577.19;4996760;28;20122;-75
2023/05/26 03:13:56;;;;;;;0.30;0.30;;;;;;;15.59;86.18;99577.56;5048514;28;20053;-72
2023/05/26 03:16:27;;;;;;;0.30;0.30;;;;;;;15.65;85.86;99571.91;5025292;28;20143;-70
2023/05/26 03:18:57;;;;;;;0.30;0.30;;;;;;;15.77;85.13;99582.38;5020530;28;20378;-74
2023/05/26 03:21:25;;;;;;;0.30;0.30;;;;;;;15.86;85.16;99580.47;5054352;28;20049;-74
2023/05/26 03:23:54;;;;;;;0.32;0.32;;;;;;;15.97;84.15;99581.03;5033470;28;20049;-71
2023/05/26 03:26:22;;;;;;;0.30;0.30;;;;;;;16.04;83.48;99588.88;5002673;28;20135;-74
2023/05/26 03:28:48;;;;;;;0.30;0.30;;;;;;;16.15;82.95;99587.47;5028024;23;20085;-74
2023/05/26 03:31:14;;;;;;;0.30;0.30;;;;;;;16.18;82.46;99586.03;5013236;28;20137;-70
2023/05/26 03:33:42;;;;;;;0.30;0.30;;;;;;;16.22;82.04;99589.78;5002646;28;20461;-70
2023/05/26 03:36:08;;;;;;;0.30;0.30;;;;;;;16.29;81.50;99590.09;5021472;28;20462;-74
2023/05/26 03:38:35;;;;;;;0.30;0.30;;;;;;;16.34;81.00;99589.16;5021717;28;20069;-75
2023/05/26 03:41:02;;;;;;;0.30;0.30;;;;;;;16.38;80.59;99588.22;5022885;28;20502;-75
2023/05/26 03:43:31;;;;;;;0.30;0.30;;;;;;;16.47;80.42;99591.00;5022125;28;20057;-75
2023/05/26 03:45:58;;;;;;;0.30;0.30;;;;;;;16.58;79.59;99591.50;5021080;28;20053;-75
2023/05/26 03:48:24;;;;;;;0.30;0.30;;;;;;;16.64;79.71;99598.53;5021064;28;20050;-75
2023/05/26 03:50:51;;;;;;;0.30;0.30;;;;;;;16.69;79.42;99595.59;5021312;28;20145;-74
2023/05/26 03:53:18;;;;;;;0.30;0.30;;;;;;;16.74;78.75;99597.41;5022760;28;20045;-74
2023/05/26 03:55:44;;;;;;;0.30;0.30;;;;;;;16.76;78.34;99603.41;5022944;28;20526;-69
2023/05/26 03:58:10;;;;;;;0.30;0.30;;;;;;;16.77;77.83;99605.03;5022581;28;20047;-70
2023/05/26 04:00:38;;;;;;;0.30;0.30;;;;;;;16.84;77.53;99602.59;5022850;28;20060;-70
2023/05/26 04:03:05;;;;;;;0.30;0.30;;;;;;;16.94;77.57;99593.22;5019964;28;20038;-70
2023/05/26 04:05:31;;;;;;;0.30;0.30;;;;;;;17.00;76.99;99589.19;5021964;28;20471;-70
2023/05/26 04:07:57;;;;;;;0.30;0.30;;;;;;;17.07;76.71;99591.47;5004675;28;20050;-71
2023/05/26 04:10:23;;;;;;;0.40;0.40;;;;;;;17.13;76.04;99595.69;5005500;28;20524;-70
2023/05/26 04:12:50;;;;;;;0.30;0.30;;;;;;;17.16;75.85;99588.72;5019726;28;20046;-68
2023/05/26 04:15:16;;;;;;;0.30;0.30;;;;;;;17.24;75.42;99587.09;5022836;28;20129;-70
2023/05/26 04:17:44;;;;;;;0.30;0.30;;;;;;;17.29;74.68;99590.50;5021369;28;20121;-70
2023/05/26 04:20:10;;;;;;;0.30;0.30;;;;;;;17.33;74.36;99592.63;5020935;28;20552;-71
2023/05/26 04:22:36;;;;;;;0.30;0.30;;;;;;;17.37;73.88;99588.88;5003318;28;20050;-70
2023/05/26 04:25:03;;;;;;;0.30;0.30;;;;;;;17.43;73.73;99579.28;5019549;28;20132;-71
2023/05/26 04:27:52;;;;;;;;;;;;;;;17.59;73.95;99584.31;5019538;28;20049;-70
2023/05/26 04:30:38;;;;;;;0.30;0.30;;;;;;;17.72;72.80;99588.03;5019001;28;19925;-70
2023/05/26 04:33:25;;;;;;;0.30;0.30;;;;;;;17.83;72.51;99589.28;5017097;28;20049;-70
2023/05/26 04:35:57;;;;;;;0.30;0.30;;;;;;;17.97;71.75;99594.66;5021457;28;20042;-71
2023/05/26 04:38:23;;;;;;;0.30;0.30;;;;;;;18.08;71.17;99595.13;5005383;28;20049;-71
2023/05/26 04:40:50;;;;;;;0.33;0.33;;;;;;;18.13;70.35;99596.91;5004610;28;20050;-70
2023/05/26 04:43:16;;;;;;;0.30;0.30;;;;;;;18.17;70.19;99600.63;5020999;28;20521;-71
2023/05/26 04:45:43;;;;;;;0.30;0.30;;;;;;;18.20;69.38;99604.69;5021121;28;20041;-70
2023/05/26 04:48:09;;;;;;;0.30;0.30;;;;;;;18.23;69.43;99604.81;5020665;28;20037;-70
2023/05/26 04:50:40;;;;;;;0.40;0.40;;;;;;;18.28;69.14;99612.13;5022715;28;20049;-71
2023/05/26 04:53:06;;;;;;;0.32;0.32;;;;;;;18.32;68.71;99610.31;5025346;28;20487;-75
2023/05/26 04:55:36;;;;;;;0.30;0.30;;;;;;;18.48;68.34;99613.34;5024947;28;20103;-74
2023/05/26 04:58:06;;;;;;;0.32;0.32;;;;;;;18.55;68.47;99613.63;5007654;28;20073;-75
2023/05/26 05:00:34;;;;;;;0.30;0.30;;;;;;;18.65;67.70;99617.19;5024206;28;20073;-74
2023/05/26 05:03:23;;;;;;;0.40;0.40;;;;;;;18.69;67.39;99626.44;5024148;28;20063;-74
2023/05/26 05:06:10;;;;;;;0.30;0.30;;;;;;;18.79;66.45;99616.94;5026144;28;20124;-75
2023/05/26 05:08:37;;;;;;;0.38;0.38;;;;;;;18.85;66.00;99610.88;5008290;28;20052;-74
2023/05/26 05:11:03;;;;;;;0.30;0.30;;;;;;;18.91;65.64;99619.00;5025637;28;20512;-76
2023/05/26 05:13:31;;;;;;;0.45;0.30;;;;;;;18.91;65.70;99619.78;5025144;28;20046;-74
2023/05/26 05:15:57;;;;;;;0.30;0.30;;;;;;;18.94;65.40;99621.09;5024518;28;20475;-75
2023/05/26 05:18:24;;;;;;;0.30;0.30;;;;;;;18.97;65.29;99626.78;5023335;28;20085;-75
2023/05/26 05:20:52;;;;;;;0.30;0.30;;;;;;;19.04;65.21;99629.03;5024160;28;20049;-74
2023/05/26 05:23:20;;;;;;;0.30;0.30;;;;;;;19.15;65.25;99623.09;5009933;28;20536;-70
2023/05/26 05:25:46;;;;;;;0.30;0.30;;;;;;;19.18;63.60;99616.88;5025351;28;20053;-69
2023/05/26 05:28:12;;;;;;;0.40;0.40;;;;;;;19.23;63.76;99617.47;5004431;28;20651;-70
2023/05/26 05:30:46;;;;;;;0.35;0.35;;;;;;;19.23;63.31;99611.94;5020167;28;20048;-74
2023/05/26 05:33:12;;;;;;;;;;;;;;;19.26;63.19;99610.47;5023206;28;20108;-75
2023/05/26 05:35:39;;;;;;;0.30;0.30;;;;;;;19.31;63.26;99618.56;5022416;28;20371;-74
2023/05/26 05:38:05;;;;;;;0.30;0.30;;;;;;;19.37;62.84;99616.41;5008817;28;20045;-75
2023/05/26 05:40:33;;;;;;;0.32;0.32;;;;;;;19.45;62.79;99609.16;5022280;28;20053;-74
2023/05/26 05:43:00;;;;;;;0.32;0.32;;;;;;;19.53;62.89;99614.63;5025889;28;20053;-74
2023/05/26 05:45:27;;;;;;;0.38;0.38;;;;;;;19.59;62.74;99608.88;4676307;28;10000128;-75
2023/05/26 05:48:23;;;;;;;0.40;0.40;;;;;;;19.65;62.00;99608.31;5009741;28;20056;-75
2023/05/26 05:51:00;;;;;;;0.30;0.30;;;;;;;19.69;61.28;99609.28;5019811;28;20045;-75
2023/05/26 05:53:26;;;;;;;0.55;0.30;;;;;;;19.70;60.86;99618.38;4988379;28;20054;-76
2023/05/26 05:55:54;;;;;;;0.30;0.30;;;;;;;19.70;60.84;99613.66;5020758;28;20077;-76
2023/05/26 05:58:20;;;;;;;0.38;0.38;;;;;;;19.79;59.95;99626.63;5025170;28;20118;-76
2023/05/26 06:00:47;;;;;;;0.30;0.30;;;;;;;19.83;59.62;99624.81;5016902;28;20051;-75
2023/05/26 06:03:14;;;;;;;0.30;0.30;;;;;;;19.81;59.57;99618.75;5020968;28;20815;-75
2023/05/26 06:05:40;;;;;;;0.30;0.30;;;;;;;19.81;59.30;99610.44;5022983;28;20057;-75
2023/05/26 06:08:06;;;;;;;0.40;0.40;;;;;;;19.87;58.23;99617.41;5000909;28;20042;-76
2023/05/26 06:10:32;;;;;;;0.30;0.30;;;;;;;19.96;57.67;99614.56;5020736;28;20045;-75
2023/05/26 06:13:00;;;;;;;0.40;0.40;;;;;;;20.08;57.55;99616.56;5022825;28;20045;-76
2023/05/26 06:15:27;;;;;;;0.40;0.40;;;;;;;20.23;56.53;99606.78;5023168;28;20056;-76
2023/05/26 06:17:53;;;;;;;0.40;0.40;;;;;;;20.35;56.37;99606.75;5005583;28;20095;-75
2023/05/26 06:20:19;;;;;;;0.40;0.40;;;;;;;20.52;56.03;99599.38;5003338;28;20090;-75
2023/05/26 06:22:46;;;;;;;0.40;0.40;;;;;;;20.72;55.60;99602.38;5024180;28;20049;-76
2023/05/26 06:25:12;;;;;;;0.30;0.30;;;;;;;20.88;54.83;99592.22;5024164;28;20041;-75
2023/05/26 06:27:40;;;;;;;0.37;0.37;;;;;;;21.07;54.52;99597.16;5023107;28;20095;-76
2023/05/26 06:30:09;;;;;;;0.40;0.40;;;;;;;21.17;53.63;99601.41;5022534;28;20398;-75
2023/05/26 06:32:37;;;;;;;0.40;0.40;;;;;;;21.27;53.29;99599.28;5024326;28;20055;-76
2023/05/26 06:35:05;;;;;;;0.40;0.40;;;;;;;21.29;52.62;99594.19;5007068;28;20501;-76
2023/05/26 06:37:32;;;;;;;0.40;0.40;;;;;;;21.20;52.64;99597.94;5024528;28;20461;-69
2023/05/26 06:39:58;;;;;;;0.40;0.40;;;;;;;21.33;52.57;99606.22;5024760;28;20060;-70
2023/05/26 06:42:31;;;;;;;0.40;0.40;;;;;;;21.51;52.17;99604.78;5007891;28;20033;-74
2023/05/26 06:44:57;;;;;;;0.38;0.38;;;;;;;21.53;51.50;99604.41;5026794;28;20038;-70
2023/05/26 06:47:25;;;;;;;0.40;0.40;;;;;;;21.65;50.38;99612.72;5023547;28;20073;-70
2023/05/26 06:50:07;;;;;;;0.30;0.30;;;;;;;21.70;49.59;99611.66;5019972;28;20304;-70
2023/05/26 06:52:33;;;;;;;0.40;0.40;;;;;;;21.76;49.37;99612.22;5006205;28;20076;-70
2023/05/26 06:55:00;;;;;;;0.40;0.40;;;;;;;21.87;49.06;99626.41;5022192;28;20049;-76
2023/05/26 06:57:26;;;;;;;0.40;0.40;;;;;;;22.04;48.50;99625.28;5023879;28;20063;-75
2023/05/26 06:59:52;;;;;;;0.52;0.40;;;;;;;22.23;48.02;99625.41;5019705;28;20073;-76
2023/05/26 07:02:19;;;;;;;0.40;0.40;;;;;;;22.51;47.33;99623.72;5019511;28;20045;-76
2023/05/26 07:04:47;;;;;;;0.30;0.30;;;;;;;22.65;46.53;99618.50;5019145;28;20049;-77
2023/05/26 07:07:13;;;;;;;0.40;0.40;;;;;;;22.78;46.03;99627.53;5022052;28;20296;-77
2023/05/26 07:09:39;;;;;;;0.30;0.30;;;;;;;22.86;45.86;99622.16;5019655;28;20057;-75
2023/05/26 07:12:11;;;;;;;0.40;0.40;;;;;;;23.05;44.86;99630.53;5020001;28;20045;-76
2023/05/26 07:14:48;;;;;;;0.40;0.40;;;;;;;23.09;44.64;99627.84;5017944;28;20056;-77
2023/05/26 07:17:15;;;;;;;0.40;0.40;;;;;;;23.15;43.95;99625.59;5020449;28;20077;-75
2023/05/26 07:19:43;;;;;;;0.40;0.40;;;;;;;23.21;43.80;99624.94;5002300;28;20303;-78
2023/05/26 07:22:11;;;;;;;0.30;0.30;;;;;;;23.27;43.41;99624.66;5022513;28;20716;-76
2023/05/26 07:24:49;;;;;;;0.40;0.40;;;;;;;23.39;42.88;99621.75;5014480;28;20101;-76
2023/05/26 07:27:24;;;;;;;0.50;0.50;;;;;;;23.47;42.19;99623.50;5033355;28;20053;-76
2023/05/26 07:29:50;;;;;;;0.40;0.40;;;;;;;23.57;42.58;99613.75;4938736;28;1335104;-77
2023/05/26 07:32:17;;;;;;;0.47;0.40;;;;;;;23.61;42.13;99623.00;5008420;28;20046;-77
2023/05/26 07:34:43;;;;;;;0.30;0.30;;;;;;;23.65;41.56;99620.28;4987655;28;20045;-69
2023/05/26 07:37:11;;;;;;;0.30;0.30;;;;;;;23.92;40.78;99620.38;5005258;28;20228;-70
2023/05/26 07:39:37;;;;;;;0.40;0.40;;;;;;;24.39;40.23;99623.22;4987341;28;20517;-70
2023/05/26 07:42:04;;;;;;;0.40;0.40;;;;;;;24.87;38.72;99611.63;5021774;28;20650;-70
2023/05/26 07:44:30;;;;;;;0.40;0.40;;;;;;;25.02;38.01;99632.19;5019610;28;20077;-71
2023/05/26 07:46:56;;;;;;;0.40;0.40;;;;;;;24.97;37.76;99627.72;4982670;28;20068;-71
2023/05/26 07:49:22;;;;;;;0.40;0.40;;;;;;;24.97;37.36;99621.34;4995942;28;20133;-70
2023/05/26 07:51:49;;;;;;;0.40;0.40;;;;;;;24.88;36.14;99608.44;5013753;28;20064;-70
2023/05/26 07:54:16;;;;;;;0.50;0.50;;;;;;;25.03;36.32;99611.44;5025803;28;20125;-69
2023/05/26 07:56:43;;;;;;;0.40;0.40;;;;;;;25.28;36.25;99614.56;5011992;28;20144;-69
2023/05/26 07:59:09;;;;;;;0.40;0.40;;;;;;;25.44;34.94;99617.19;4997434;28;20045;-69
2023/05/26 08:01:36;;;;;;;0.50;0.50;;;;;;;25.35;34.87;99613.84;4974875;28;20295;-70
2023/05/26 08:04:02;;;;;;;0.40;0.40;;;;;;;25.35;34.79;99619.44;5008387;28;20055;-69
2023/05/26 08:06:28;;;;;;;0.40;0.40;;;;;;;25.66;33.69;99617.44;4972953;28;20311;-69
2023/05/26 08:08:55;;;;;;;0.50;0.50;;;;;;;26.08;32.86;99607.09;5006089;28;20535;-75
2023/05/26 08:11:23;;;;;;;0.50;0.50;;;;;;;26.35;33.25;99614.56;5009300;28;20042;-76
2023/05/26 08:13:49;;;;;;;0.50;0.50;;;;;;;26.68;31.72;99619.22;5005362;28;20063;-75
2023/05/26 08:16:16;;;;;;;0.60;0.60;;;;;;;26.69;31.31;99604.00;4990007;28;20045;-75
2023/05/26 08:18:42;;;;;;;0.55;0.55;;;;;;;26.80;30.91;99603.28;5018727;28;20049;-75
2023/05/26 08:21:08;;;;;;;0.50;0.50;;;;;;;26.80;30.19;99609.69;5002745;28;20552;-76
2023/05/26 08:23:34;;;;;;;0.50;0.50;;;;;;;26.67;30.15;99611.22;5002190;28;20045;-75
2023/05/26 08:26:01;;;;;;;0.50;0.50;;;;;;;26.84;30.03;99620.91;5007258;28;20046;-75
2023/05/26 08:28:28;;;;;;;0.50;0.50;;;;;;;27.06;29.46;99607.06;5009069;28;20535;-70
2023/05/26 08:30:55;;;;;;;0.50;0.50;;;;;;;27.64;28.94;99610.94;5006910;28;20800;-70
2023/05/26 08:33:21;;;;;;;0.60;0.60;;;;;;;28.32;28.51;99609.47;5025300;28;20037;-70
2023/05/26 08:35:48;;;;;;;0.60;0.60;;;;;;;28.67;27.63;99610.66;4989829;28;20453;-69
2023/05/26 08:38:14;;;;;;;0.50;0.50;;;;;;;29.01;27.16;99603.81;5027680;28;20068;-76
2023/05/26 08:40:40;;;;;;;0.60;0.60;;;;;;;29.51;26.31;99597.22;4993540;28;20069;-76
2023/05/26 08:43:08;;;;;;;0.60;0.60;;;;;;;29.33;25.57;99602.06;5007631;28;20585;-76
2023/05/26 08:45:37;;;;;;;0.60;0.60;;;;;;;29.19;25.07;99612.19;5024293;28;20065;-76
2023/05/26 08:48:06;;;;;;;0.70;0.70;;;;;;;29.22;24.91;99600.13;5004876;28;20041;-76
2023/05/26 08:50:33;;;;;;;0.60;0.60;;;;;;;29.72;24.56;99598.31;5004683;28;20049;-76
2023/05/26 08:53:01;;;;;;;0.60;0.60;;;;;;;30.29;24.30;99585.06;5007798;28;20049;-76
2023/05/26 08:55:27;;;;;;;0.70;0.70;;;;;;;30.00;24.51;99573.97;4990957;28;20045;-76
2023/05/26 08:57:56;;;;;;;0.60;0.60;;;;;;;30.34;24.12;99589.41;5007540;28;20041;-76
2023/05/26 09:00:22;;;;;;;0.70;0.70;;;;;;;30.91;23.35;99592.94;5006532;28;20552;-76
2023/05/26 09:02:50;;;;;;;0.70;0.70;;;;;;;31.37;23.11;99583.16;5003872;28;20051;-76
2023/05/26 09:05:16;;;;;;;0.70;0.70;;;;;;;31.23;23.91;99583.31;5004325;28;20050;-77
2023/05/26 09:07:42;;;;;;;0.70;0.70;;;;;;;31.74;23.73;99585.47;4974719;28;20594;-76
2023/05/26 09:10:22;;;;;;;0.73;0.73;;;;;;;32.17;23.41;99578.41;5021843;28;20046;-76
2023/05/26 09:12:49;;;;;;;0.40;0.40;;;;;;;31.45;23.94;99594.34;5026187;28;20034;-71
2023/05/26 09:15:19;;;;;;;;;;;;;;;29.89;25.96;99585.28;5024681;28;20428;-70
2023/05/26 09:17:46;;;;;;;0.60;0.60;;;;;;;29.19;26.75;99580.44;5007140;28;19925;-76
2023/05/26 09:20:13;;;;;;;0.60;0.60;;;;;;;29.60;26.37;99574.25;5023095;28;20522;-76
2023/05/26 09:22:39;;;;;;;0.55;0.55;;;;;;;29.26;26.60;99572.75;5007223;28;20053;-76
2023/05/26 09:25:06;;;;;;;0.50;0.50;;;;;;;28.71;26.80;99565.66;5008315;28;20038;-76
2023/05/26 09:27:32;;;;;;;1.00;0.90;;;;;;;28.95;25.84;99563.22;5023904;28;20163;-76
2023/05/26 09:30:00;;;;;;;0.90;0.90;;;;;;;30.08;24.68;99549.38;5006659;28;20149;-76
2023/05/26 09:32:27;;;;;;;0.90;0.90;;;;;;;31.36;22.86;99558.94;5005707;28;20048;-76
2023/05/26 09:34:55;;;;;;;0.90;0.90;;;;;;;32.48;22.14;99562.13;5019086;28;20505;-70
2023/05/26 09:37:30;;;;;;;1.00;1.00;;;;;;;33.42;21.29;99550.19;5015367;28;20132;-70
2023/05/26 09:40:05;;;;;;;0.90;0.90;;;;;;;33.94;20.25;99555.06;4998942;28;20064;-70
2023/05/26 09:42:32;;;;;;;0.90;0.90;;;;;;;34.10;20.49;99552.72;5006350;28;20192;-70
2023/05/26 09:45:01;;;;;;;1.00;1.00;;;;;;;34.18;19.99;99554.09;5022436;28;20140;-77
2023/05/26 09:47:33;;;;;;;1.00;1.00;;;;;;;34.55;19.27;99549.13;5025606;28;20076;-70
2023/05/26 09:50:04;;;;;;;1.10;1.10;;;;;;;33.19;21.32;99549.84;5026899;28;20045;-77
2023/05/26 09:52:33;;;;;;;0.50;0.50;;;;;;;32.14;22.02;99548.94;5007198;28;21125;-76
2023/05/26 09:55:00;;;;;;;1.00;1.00;;;;;;;31.57;23.11;99551.41;5024327;28;20041;-70
2023/05/26 09:57:27;;;;;;;;;;;;;;;30.98;23.46;99558.97;5025707;28;20265;-69
2023/05/26 09:59:56;;;;;;;1.20;1.10;;;;;;;29.39;24.88;99549.78;5025507;28;20319;-69
2023/05/26 10:02:24;;;;;;;0.73;0.73;;;;;;;29.81;25.00;99550.75;5025170;28;20046;-76
2023/05/26 10:04:51;;;;;;;1.10;1.10;;;;;;;30.82;23.92;99540.63;5023595;28;20037;-68
2023/05/26 10:07:19;;;;;;;1.00;1.00;;;;;;;31.61;23.16;99543.69;5023805;28;20516;-69
2023/05/26 10:09:52;;;;;;;1.05;1.05;;;;;;;32.05;22.36;99543.03;5007067;28;20474;-70
2023/05/26 10:12:22;;;;;;;1.10;1.10;;;;;;;32.47;22.20;99540.72;5024384;28;20128;-76
2023/05/26 10:14:49;;;;;;;1.10;1.10;;;;;;;32.89;21.67;99545.19;5024581;28;20042;-77
2023/05/26 10:17:15;;;;;;;1.20;1.10;;;;;;;33.05;21.31;99542.47;4989443;28;20076;-76
2023/05/26 10:19:42;;;;;;;;;;;;;;;33.42;20.30;99547.34;5023551;28;20037;-77
2023/05/26 10:22:11;;;;;;;1.10;1.10;;;;;;;33.14;20.81;99549.56;5024251;28;19924;-77
2023/05/26 10:24:40;;;;;;;1.20;1.20;;;;;;;33.70;20.65;99540.25;4990157;28;20148;-76
2023/05/26 10:27:16;;;;;;;1.10;1.10;;;;;;;34.40;19.69;99551.50;5023700;28;20136;-76
2023/05/26 10:29:48;;;;;;;1.30;1.20;;;;;;;34.65;19.24;99535.88;5004313;28;20053;-70
2023/05/26 10:32:44;;;;;;;1.30;1.20;;;;;;;35.28;18.58;99532.88;5003913;28;20060;-70
2023/05/26 10:35:24;;;;;;;1.30;1.20;;;;;;;35.96;17.73;99540.53;5021556;28;20041;-70
2023/05/26 10:37:54;;;;;;;0.57;0.57;;;;;;;35.73;18.10;99536.81;4990328;28;20055;-77
2023/05/26 10:40:29;;;;;;;0.60;0.60;;;;;;;33.90;19.71;99534.50;5007760;28;20053;-76
2023/05/26 10:43:02;;;;;;;1.35;1.20;;;;;;;33.29;20.53;99538.75;4988861;28;20057;-76
2023/05/26 10:45:32;;;;;;;1.30;1.20;;;;;;;34.17;20.09;99524.97;5022919;28;20049;-77
2023/05/26 10:48:05;;;;;;;1.40;1.30;;;;;;;35.35;19.53;99518.47;4989340;28;20049;-76
2023/05/26 10:51:05;;;;;;;1.40;1.30;;;;;;;36.48;17.46;99527.00;4984921;28;20135;-77
2023/05/26 10:53:34;;;;;;;1.33;1.23;;;;;;;36.72;17.04;99524.53;4985973;28;20042;-76
2023/05/26 10:56:04;;;;;;;1.40;1.30;;;;;;;36.59;17.86;99524.59;5005367;28;20038;-76
2023/05/26 10:58:34;;;;;;;1.40;1.30;;;;;;;36.52;18.47;99532.56;4989729;28;20049;-77
2023/05/26 11:01:02;;;;;;;1.40;1.30;;;;;;;35.65;19.48;99507.81;5004827;28;20053;-77
2023/05/26 11:03:36;;;;;;;1.30;1.20;;;;;;;34.56;20.74;99535.72;5021095;28;20144;-76
2023/05/26 11:06:03;;;;;;;1.40;1.30;;;;;;;33.21;22.02;99543.75;5002528;28;20061;-70
2023/05/26 11:08:37;;;;;;;1.40;1.30;;;;;;;33.58;21.54;99535.28;5023409;28;20045;-77
2023/05/26 11:11:05;;;;;;;1.40;1.30;;;;;;;33.92;21.13;99534.84;5019823;28;20520;-77
2023/05/26 11:13:46;;;;;;;0.70;0.70;;;;;;;32.46;22.22;99538.31;5020317;28;20646;-77
2023/05/26 11:16:19;;;;;;;0.75;0.75;;;;;;;31.97;22.91;99536.69;5000710;28;20048;-77
2023/05/26 11:18:49;;;;;;;0.60;0.60;;;;;;;30.55;24.40;99532.03;5018003;28;20073;-76
2023/05/26 11:21:18;;;;;;;0.70;0.60;;;;;;;29.90;25.71;99550.31;4997759;28;20420;-76
2023/05/26 11:23:45;;;;;;;1.10;1.02;;;;;;;29.11;26.83;99529.81;5004351;28;20394;-77
2023/05/26 11:26:15;;;;;;;0.50;0.50;;;;;;;29.16;26.39;99559.53;5005944;28;20405;-76
2023/05/26 11:28:44;;;;;;;0.40;0.40;;;;;;;28.34;27.55;99545.25;5002084;28;20052;-77
2023/05/26 11:31:15;;;;;;;0.40;0.40;;;;;;;27.83;28.61;99547.19;5002881;28;20552;-76
2023/05/26 11:33:43;;;;;;;0.47;0.47;;;;;;;27.24;29.34;99545.41;5021484;28;20453;-75
2023/05/26 11:36:11;;;;;;;0.40;0.40;;;;;;;26.62;30.35;99545.09;5019883;28;20385;-74
2023/05/26 11:38:38;;;;;;;0.40;0.40;;;;;;;25.99;31.60;99547.78;4656636;28;10000524;-76
2023/05/26 11:41:06;;;;;;;0.40;0.40;;;;;;;25.68;32.83;99538.69;5019614;28;20084;-75